createdAt,value
2023-04-26T00:03:11.760Z,9.80
2023-04-26T00:05:21.675Z,9.79
2023-04-26T00:08:21.401Z,9.81
2023-04-26T00:10:51.196Z,9.88
2023-04-26T00:14:16.899Z,9.94
2023-04-26T00:17:32.637Z,9.78
2023-04-26T00:20:00.265Z,9.72
2023-04-26T00:25:32.840Z,9.85
2023-04-26T00:28:28.190Z,9.87
2023-04-26T00:31:25.333Z,9.86
2023-04-26T00:34:15.362Z,9.91
2023-04-26T00:37:10.941Z,9.87
2023-04-26T00:42:28.968Z,9.89
2023-04-26T00:45:12.035Z,9.85
2023-04-26T00:47:48.889Z,9.93
2023-04-26T00:50:21.668Z,9.97
2023-04-26T00:53:28.545Z,9.95
2023-04-26T00:58:56.738Z,9.78
2023-04-26T01:01:24.853Z,9.92
2023-04-26T01:03:52.371Z,9.85
2023-04-26T01:06:29.038Z,9.80
2023-04-26T01:09:22.566Z,9.80
2023-04-26T01:12:43.976Z,9.79
2023-04-26T01:15:25.429Z,9.81
2023-04-26T01:17:56.014Z,9.76
2023-04-26T01:20:33.309Z,9.77
2023-04-26T01:23:45.338Z,9.83
2023-04-26T01:29:32.597Z,9.92
2023-04-26T01:32:38.175Z,9.79
2023-04-26T01:35:24.267Z,9.76
2023-04-26T01:41:12.430Z,9.77
2023-04-26T01:44:01.871Z,9.76
2023-04-26T01:46:47.259Z,9.73
2023-04-26T01:49:35.983Z,9.72
2023-04-26T01:52:08.394Z,9.69
2023-04-26T02:00:27.496Z,9.76
2023-04-26T02:03:07.514Z,9.71
2023-04-26T02:05:41.107Z,9.79
2023-04-26T02:08:08.965Z,9.77
2023-04-26T02:10:41.975Z,9.71
2023-04-26T02:13:13.743Z,9.66
2023-04-26T02:15:47.191Z,9.63
2023-04-26T02:18:25.864Z,9.76
2023-04-26T02:20:59.054Z,9.68
2023-04-26T02:23:34.629Z,9.60
2023-04-26T02:28:52.194Z,9.47
2023-04-26T02:31:56.276Z,9.37
2023-04-26T02:34:31.996Z,9.45
2023-04-26T02:37:08.981Z,9.32
2023-04-26T02:39:40.225Z,9.26
2023-04-26T02:42:15.891Z,9.17
2023-04-26T02:47:29.224Z,9.03
2023-04-26T02:50:09.046Z,8.99
2023-04-26T02:52:57.183Z,8.93
2023-04-26T02:55:46.237Z,8.84
2023-04-26T02:58:43.470Z,8.83
2023-04-26T03:01:10.621Z,8.79
2023-04-26T03:03:38.299Z,8.85
2023-04-26T03:06:05.770Z,8.84
2023-04-26T03:08:35.073Z,8.77
2023-04-26T03:11:02.259Z,8.78
2023-04-26T03:13:34.815Z,8.78
2023-04-26T03:16:16.922Z,8.65
2023-04-26T03:18:44.069Z,8.65
2023-04-26T03:21:12.033Z,8.67
2023-04-26T03:23:39.072Z,8.65
2023-04-26T03:26:05.955Z,8.63
2023-04-26T03:28:32.653Z,8.61
2023-04-26T03:30:59.560Z,8.61
2023-04-26T03:33:26.570Z,8.65
2023-04-26T03:35:56.311Z,8.68
2023-04-26T03:38:23.827Z,8.68
2023-04-26T03:40:50.523Z,8.73
2023-04-26T03:43:17.313Z,8.73
2023-04-26T03:45:47.397Z,8.78
2023-04-26T03:48:14.153Z,8.82
2023-04-26T03:50:41.217Z,8.81
2023-04-26T03:53:07.978Z,8.79
2023-04-26T03:55:34.734Z,8.80
2023-04-26T03:58:06.124Z,8.79
2023-04-26T04:00:32.922Z,8.79
2023-04-26T04:02:59.775Z,8.83
2023-04-26T04:05:27.235Z,8.87
2023-04-26T04:07:54.132Z,8.92
2023-04-26T04:10:23.241Z,9.02
2023-04-26T04:12:51.214Z,9.03
2023-04-26T04:15:22.457Z,9.16
2023-04-26T04:17:49.646Z,9.23
2023-04-26T04:20:20.726Z,9.30
2023-04-26T04:22:48.514Z,9.40
2023-04-26T04:25:15.394Z,9.48
2023-04-26T04:27:43.915Z,9.57
2023-04-26T04:30:18.626Z,9.57
2023-04-26T04:32:47.047Z,9.59
2023-04-26T04:35:14.456Z,9.67
2023-04-26T04:37:44.759Z,9.80
2023-04-26T04:40:21.427Z,9.82
2023-04-26T04:42:48.649Z,9.85
2023-04-26T04:45:15.868Z,9.90
2023-04-26T04:47:49.998Z,10.00
2023-04-26T04:50:20.820Z,10.05
2023-04-26T04:53:10.944Z,10.02
2023-04-26T04:55:38.250Z,10.04
2023-04-26T04:58:05.300Z,10.05
2023-04-26T05:00:33.414Z,10.14
2023-04-26T05:03:00.848Z,10.16
2023-04-26T05:05:28.886Z,10.32
2023-04-26T05:07:56.131Z,10.53
2023-04-26T05:10:23.319Z,10.89
2023-04-26T05:12:52.780Z,11.30
2023-04-26T05:15:19.713Z,11.65
2023-04-26T05:17:46.713Z,11.72
2023-04-26T05:20:15.176Z,11.69
2023-04-26T05:22:44.953Z,11.69
2023-04-26T05:25:20.251Z,11.65
2023-04-26T05:27:49.119Z,11.54
2023-04-26T05:30:15.895Z,11.46
2023-04-26T05:32:42.967Z,11.44
2023-04-26T05:35:09.979Z,11.48
2023-04-26T05:37:36.989Z,11.48
2023-04-26T05:40:04.970Z,11.61
2023-04-26T05:42:31.827Z,11.91
2023-04-26T05:44:59.300Z,12.27
2023-04-26T05:47:26.395Z,12.40
2023-04-26T05:49:56.063Z,12.66
2023-04-26T05:52:23.073Z,13.03
2023-04-26T05:54:49.992Z,13.33
2023-04-26T05:57:18.093Z,13.58
2023-04-26T05:59:45.353Z,13.90
2023-04-26T06:02:15.324Z,14.11
2023-04-26T06:04:42.444Z,14.33
2023-04-26T06:07:09.866Z,14.59
2023-04-26T06:09:36.599Z,14.79
2023-04-26T06:12:06.398Z,15.04
2023-04-26T06:14:33.744Z,15.17
2023-04-26T06:17:01.153Z,15.24
2023-04-26T06:19:28.156Z,15.46
2023-04-26T06:22:05.077Z,15.50
2023-04-26T06:24:32.685Z,15.65
2023-04-26T06:26:59.494Z,15.90
2023-04-26T06:29:37.149Z,16.18
2023-04-26T06:32:03.839Z,16.30
2023-04-26T06:34:30.817Z,16.33
2023-04-26T06:37:01.566Z,16.50
2023-04-26T06:39:30.336Z,16.52
2023-04-26T06:41:57.576Z,16.42
2023-04-26T06:44:27.808Z,16.67
2023-04-26T06:46:55.948Z,16.89
2023-04-26T06:49:33.346Z,17.19
2023-04-26T06:52:00.877Z,17.37
2023-04-26T06:54:29.581Z,17.41
2023-04-26T06:57:01.362Z,17.41
2023-04-26T06:59:31.559Z,17.78
2023-04-26T07:02:03.540Z,17.85
2023-04-26T07:04:35.384Z,17.30
2023-04-26T07:07:03.449Z,16.90
2023-04-26T07:09:30.938Z,16.83
2023-04-26T07:11:57.945Z,16.68
2023-04-26T07:14:25.815Z,16.57
2023-04-26T07:17:00.869Z,16.44
2023-04-26T07:19:44.418Z,16.36
2023-04-26T07:22:11.240Z,16.21
2023-04-26T07:25:12.660Z,16.47
2023-04-26T07:27:48.177Z,16.51
2023-04-26T07:30:15.249Z,16.52
2023-04-26T07:32:42.393Z,16.50
2023-04-26T07:35:16.583Z,16.67
2023-04-26T07:37:45.160Z,16.99
2023-04-26T07:40:14.073Z,17.36
2023-04-26T07:42:41.182Z,17.14
2023-04-26T07:45:09.251Z,16.88
2023-04-26T07:47:41.912Z,16.75
2023-04-26T07:50:15.288Z,16.69
2023-04-26T07:52:47.755Z,16.57
2023-04-26T07:55:16.436Z,16.37
2023-04-26T07:57:57.977Z,16.56
2023-04-26T08:00:27.979Z,16.70
2023-04-26T08:02:55.355Z,16.78
2023-04-26T08:05:22.827Z,16.75
2023-04-26T08:07:52.744Z,16.84
2023-04-26T08:10:19.572Z,16.84
2023-04-26T08:12:49.943Z,16.52
2023-04-26T08:18:30.829Z,16.04
2023-04-26T08:23:50.211Z,16.67
2023-04-26T08:26:16.955Z,16.83
2023-04-26T08:28:47.139Z,17.01
2023-04-26T08:31:23.132Z,17.13
2023-04-26T08:33:50.157Z,17.35
2023-04-26T08:36:17.151Z,17.77
2023-04-26T08:38:43.886Z,17.99
2023-04-26T08:41:17.002Z,18.06
2023-04-26T08:43:44.110Z,18.34
2023-04-26T08:46:19.624Z,18.52
2023-04-26T08:48:54.436Z,18.83
2023-04-26T08:51:22.661Z,19.16
2023-04-26T08:53:53.608Z,19.32
2023-04-26T08:56:23.480Z,19.60
2023-04-26T08:58:51.265Z,19.87
2023-04-26T09:01:19.203Z,20.09
2023-04-26T09:03:47.291Z,19.70
2023-04-26T09:06:15.378Z,19.44
2023-04-26T09:08:43.362Z,19.50
2023-04-26T09:11:10.220Z,19.90
2023-04-26T09:13:37.230Z,20.29
2023-04-26T09:16:05.128Z,20.36
2023-04-26T09:18:34.212Z,20.10
2023-04-26T09:21:07.708Z,19.79
2023-04-26T09:23:35.399Z,19.11
2023-04-26T09:26:21.754Z,18.77
2023-04-26T09:28:49.070Z,18.19
2023-04-26T09:31:38.288Z,17.82
2023-04-26T09:34:05.579Z,17.58
2023-04-26T09:36:34.946Z,17.49
2023-04-26T09:39:04.065Z,17.39
2023-04-26T09:41:44.851Z,17.50
2023-04-26T09:44:23.277Z,17.59
2023-04-26T09:47:00.337Z,17.39
2023-04-26T09:49:29.942Z,17.48
2023-04-26T09:52:07.408Z,17.78
2023-04-26T09:55:35.266Z,18.20
2023-04-26T09:58:11.103Z,18.61
2023-04-26T10:00:42.466Z,18.85
2023-04-26T10:03:10.064Z,18.94
2023-04-26T10:05:37.763Z,18.72
2023-04-26T10:08:09.070Z,18.52
2023-04-26T10:10:37.241Z,18.51
2023-04-26T10:13:06.719Z,18.41
2023-04-26T10:15:34.976Z,18.08
2023-04-26T10:18:05.705Z,18.01
2023-04-26T10:20:32.706Z,17.81
2023-04-26T10:23:06.465Z,17.65
2023-04-26T10:25:42.332Z,17.57
2023-04-26T10:28:12.293Z,17.50
2023-04-26T10:30:59.339Z,17.39
2023-04-26T10:33:29.504Z,17.35
2023-04-26T10:36:08.091Z,17.32
2023-04-26T10:38:37.496Z,17.44
2023-04-26T10:41:30.953Z,17.32
2023-04-26T10:44:00.391Z,17.19
2023-04-26T10:46:39.948Z,17.08
2023-04-26T10:49:17.896Z,17.01
2023-04-26T10:52:12.941Z,16.97
2023-04-26T10:55:00.302Z,16.91
2023-04-26T10:58:28.063Z,17.08
2023-04-26T11:01:09.823Z,17.23
2023-04-26T11:03:37.331Z,17.21
2023-04-26T11:06:09.813Z,17.28
2023-04-26T11:08:37.155Z,17.22
2023-04-26T11:11:04.267Z,17.13
2023-04-26T11:13:31.928Z,17.02
2023-04-26T11:16:10.957Z,16.94
2023-04-26T11:18:43.036Z,16.87
2023-04-26T11:21:10.568Z,16.88
2023-04-26T11:23:37.684Z,16.78
2023-04-26T11:26:09.184Z,16.81
2023-04-26T11:28:38.284Z,16.75
2023-04-26T11:31:09.191Z,16.72
2023-04-26T11:33:36.178Z,16.53
2023-04-26T11:36:04.116Z,16.70
2023-04-26T11:38:31.185Z,16.66
2023-04-26T11:41:03.624Z,16.81
2023-04-26T11:43:40.510Z,17.01
2023-04-26T11:46:09.511Z,17.09
2023-04-26T11:48:37.663Z,17.08
2023-04-26T11:51:06.170Z,17.07
2023-04-26T11:53:43.234Z,17.21
2023-04-26T11:56:24.517Z,17.66
2023-04-26T11:59:18.704Z,17.71
2023-04-26T12:02:29.305Z,18.10
2023-04-26T12:06:13.392Z,18.45
2023-04-26T12:09:32.239Z,18.59
2023-04-26T12:11:52.771Z,18.45
2023-04-26T12:15:27.472Z,18.45
2023-04-26T12:19:09.598Z,18.26
2023-04-26T12:22:08.074Z,17.97
2023-04-26T12:25:14.097Z,17.90
2023-04-26T12:30:55.376Z,18.32
2023-04-26T12:34:25.053Z,18.20
2023-04-26T12:37:25.467Z,18.06
2023-04-26T12:46:50.136Z,18.51
2023-04-26T12:49:17.208Z,18.77
2023-04-26T12:52:20.609Z,18.95
2023-04-26T12:54:49.405Z,18.82
2023-04-26T12:57:16.318Z,18.86
2023-04-26T12:59:57.404Z,18.92
2023-04-26T13:02:25.328Z,19.08
2023-04-26T13:04:52.856Z,19.26
2023-04-26T13:07:20.627Z,19.27
2023-04-26T13:09:53.747Z,19.17
2023-04-26T13:15:02.034Z,18.46
2023-04-26T13:17:28.841Z,18.21
2023-04-26T13:19:58.741Z,18.34
2023-04-26T13:22:32.069Z,18.46
2023-04-26T13:24:59.069Z,18.63
2023-04-26T13:27:31.352Z,18.78
2023-04-26T13:29:58.739Z,18.86
2023-04-26T13:32:25.849Z,18.91
2023-04-26T13:34:53.419Z,18.96
2023-04-26T13:37:21.379Z,18.98
2023-04-26T13:39:48.766Z,18.66
2023-04-26T13:42:24.836Z,18.51
2023-04-26T13:44:52.064Z,18.69
2023-04-26T13:47:19.217Z,18.66
2023-04-26T13:49:46.291Z,18.73
2023-04-26T13:52:13.095Z,18.70
2023-04-26T13:54:42.648Z,18.66
2023-04-26T13:57:09.429Z,18.51
2023-04-26T13:59:36.259Z,18.07
2023-04-26T14:02:03.852Z,17.78
2023-04-26T14:04:43.686Z,17.66
2023-04-26T14:07:20.318Z,17.51
2023-04-26T14:09:51.115Z,17.49
2023-04-26T14:12:48.033Z,17.54
2023-04-26T14:15:24.677Z,17.58
2023-04-26T14:17:58.004Z,17.44
2023-04-26T14:20:28.462Z,17.27
2023-04-26T14:23:26.758Z,17.14
2023-04-26T14:25:55.497Z,17.00
2023-04-26T14:28:32.186Z,16.94
2023-04-26T14:30:59.420Z,16.87
2023-04-26T14:33:38.631Z,16.82
2023-04-26T14:36:06.671Z,16.69
2023-04-26T14:38:37.595Z,16.58
2023-04-26T14:41:46.093Z,16.49
2023-04-26T14:44:35.527Z,16.34
2023-04-26T14:47:06.495Z,16.23
2023-04-26T14:52:31.996Z,16.05
2023-04-26T14:55:16.978Z,15.99
2023-04-26T14:58:08.163Z,15.90
2023-04-26T15:00:34.994Z,15.95
2023-04-26T15:03:03.106Z,15.91
2023-04-26T15:05:30.216Z,15.88
2023-04-26T15:08:00.723Z,15.85
2023-04-26T15:10:28.313Z,15.79
2023-04-26T15:12:58.537Z,15.67
2023-04-26T15:15:25.384Z,15.69
2023-04-26T15:17:53.049Z,15.70
2023-04-26T15:20:24.999Z,15.64
2023-04-26T15:22:51.760Z,15.58
2023-04-26T15:25:19.077Z,15.57
2023-04-26T15:27:47.030Z,15.62
2023-04-26T15:30:14.350Z,15.65
2023-04-26T15:32:50.311Z,15.54
2023-04-26T15:35:17.592Z,15.52
2023-04-26T15:37:44.891Z,15.40
2023-04-26T15:40:12.348Z,15.33
2023-04-26T15:42:39.370Z,15.19
2023-04-26T15:45:06.684Z,15.14
2023-04-26T15:47:35.700Z,15.12
2023-04-26T15:50:10.752Z,15.10
2023-04-26T15:52:39.416Z,15.05
2023-04-26T15:55:10.249Z,14.98
2023-04-26T15:57:38.019Z,14.99
2023-04-26T16:00:09.284Z,14.82
2023-04-26T16:02:37.553Z,14.80
2023-04-26T16:05:05.317Z,14.69
2023-04-26T16:07:32.117Z,14.68
2023-04-26T16:09:59.080Z,14.58
2023-04-26T16:12:25.940Z,14.59
2023-04-26T16:14:53.434Z,14.53
2023-04-26T16:17:20.432Z,14.53
2023-04-26T16:19:48.830Z,14.52
2023-04-26T16:25:24.834Z,14.43
2023-04-26T16:27:51.719Z,14.36
2023-04-26T16:30:19.252Z,14.26
2023-04-26T16:32:46.167Z,14.20
2023-04-26T16:35:14.738Z,14.17
2023-04-26T16:37:44.324Z,14.09
2023-04-26T16:40:11.741Z,14.07
2023-04-26T16:42:46.664Z,14.03
2023-04-26T16:45:16.548Z,14.01
2023-04-26T16:47:47.596Z,13.97
2023-04-26T16:50:14.891Z,13.91
2023-04-26T16:56:16.441Z,13.77
2023-04-26T16:58:52.262Z,13.77
2023-04-26T17:01:22.934Z,13.75
2023-04-26T17:03:56.389Z,13.71
2023-04-26T17:09:07.297Z,13.63
2023-04-26T17:11:47.194Z,13.61
2023-04-26T17:15:14.372Z,13.55
2023-04-26T17:18:11.343Z,13.41
2023-04-26T17:21:06.056Z,13.31
2023-04-26T17:23:40.365Z,13.24
2023-04-26T17:27:00.287Z,13.06
2023-04-26T17:29:27.432Z,13.13
2023-04-26T17:32:38.964Z,12.97
2023-04-26T17:35:19.328Z,12.90
2023-04-26T17:37:50.451Z,12.83
2023-04-26T17:40:36.482Z,12.81
2023-04-26T17:46:03.645Z,12.71
2023-04-26T17:52:02.037Z,12.62
2023-04-26T17:54:32.774Z,12.58
2023-04-26T17:57:03.527Z,12.52
2023-04-26T17:59:31.820Z,12.44
2023-04-26T18:01:59.818Z,12.32
2023-04-26T18:05:06.643Z,12.26
2023-04-26T18:07:43.874Z,12.14
2023-04-26T18:10:27.043Z,12.15
2023-04-26T18:13:26.717Z,12.24
2023-04-26T18:16:09.772Z,12.12
2023-04-26T18:19:23.520Z,12.07
2023-04-26T18:25:53.428Z,11.85
2023-04-26T18:28:59.350Z,11.99
2023-04-26T18:32:09.094Z,11.93
2023-04-26T18:35:21.731Z,11.83
2023-04-26T18:37:48.798Z,11.86
2023-04-26T18:40:58.257Z,11.90
2023-04-26T18:43:47.726Z,11.90
2023-04-26T18:46:14.845Z,11.97
2023-04-26T18:49:09.018Z,11.90
2023-04-26T18:51:52.107Z,11.87
2023-04-26T18:54:19.049Z,11.75
2023-04-26T18:57:16.328Z,11.80
2023-04-26T19:00:13.159Z,11.91
2023-04-26T19:05:43.009Z,11.74
2023-04-26T19:08:23.920Z,11.67
2023-04-26T19:11:05.252Z,11.56
2023-04-26T19:13:50.247Z,11.43
2023-04-26T19:16:21.681Z,11.18
2023-04-26T19:18:49.197Z,11.33
2023-04-26T19:21:16.533Z,11.32
2023-04-26T19:23:45.397Z,11.22
2023-04-26T19:26:13.640Z,11.15
2023-04-26T19:28:41.071Z,11.04
2023-04-26T19:31:08.306Z,10.93
2023-04-26T19:33:42.185Z,10.86
2023-04-26T19:36:10.697Z,10.80
2023-04-26T19:38:37.697Z,10.71
2023-04-26T19:41:04.450Z,10.76
2023-04-26T19:43:31.542Z,10.78
2023-04-26T19:45:58.658Z,10.79
2023-04-26T19:48:26.495Z,10.71
2023-04-26T19:50:53.246Z,10.63
2023-04-26T19:53:20.029Z,10.54
2023-04-26T19:55:46.776Z,10.49
2023-04-26T19:58:13.547Z,10.48
2023-04-26T20:00:40.709Z,10.49
2023-04-26T20:03:08.001Z,10.38
2023-04-26T20:05:35.659Z,10.38
2023-04-26T20:08:02.795Z,10.29
2023-04-26T20:10:34.361Z,10.20
2023-04-26T20:13:01.749Z,10.14
2023-04-26T20:15:31.004Z,10.12
2023-04-26T20:17:59.359Z,9.98
2023-04-26T20:20:26.231Z,9.92
2023-04-26T20:22:52.926Z,9.89
2023-04-26T20:25:20.242Z,9.87
2023-04-26T20:27:47.785Z,9.87
2023-04-26T20:30:15.438Z,9.79
2023-04-26T20:32:42.776Z,9.79
2023-04-26T20:35:09.862Z,9.78
2023-04-26T20:37:36.536Z,9.82
2023-04-26T20:40:03.938Z,9.86
2023-04-26T20:42:30.991Z,9.89
2023-04-26T20:44:59.823Z,9.89
2023-04-26T20:47:28.039Z,9.84
2023-04-26T20:49:55.084Z,9.90
2023-04-26T20:52:21.821Z,9.92
2023-04-26T20:54:48.584Z,9.90
2023-04-26T20:57:16.278Z,9.94
2023-04-26T20:59:43.058Z,9.93
2023-04-26T21:02:10.161Z,9.87
2023-04-26T21:04:39.101Z,9.88
2023-04-26T21:07:06.182Z,9.96
2023-04-26T21:09:32.931Z,9.96
2023-04-26T21:11:59.931Z,9.96
2023-04-26T21:14:26.896Z,9.92
2023-04-26T21:16:54.081Z,9.78
2023-04-26T21:19:21.228Z,9.75
2023-04-26T21:21:48.040Z,9.62
2023-04-26T21:24:14.879Z,9.59
2023-04-26T21:26:41.609Z,9.55
2023-04-26T21:29:08.931Z,9.53
2023-04-26T21:31:35.921Z,9.52
2023-04-26T21:34:02.901Z,9.58
2023-04-26T21:36:30.089Z,9.49
2023-04-26T21:39:09.979Z,9.42
2023-04-26T21:41:37.076Z,9.39
2023-04-26T21:44:04.455Z,9.26
2023-04-26T21:46:31.469Z,9.19
2023-04-26T21:48:58.406Z,9.18
2023-04-26T21:51:25.588Z,9.21
2023-04-26T21:53:52.348Z,9.19
2023-04-26T21:56:19.132Z,9.17
2023-04-26T21:58:46.352Z,9.16
2023-04-26T22:01:15.124Z,9.15
2023-04-26T22:03:42.213Z,9.12
2023-04-26T22:06:09.775Z,9.20
2023-04-26T22:08:36.849Z,9.23
2023-04-26T22:11:04.296Z,9.36
2023-04-26T22:13:32.467Z,9.37
2023-04-26T22:15:59.293Z,9.34
2023-04-26T22:18:26.557Z,9.34
2023-04-26T22:20:53.791Z,9.39
2023-04-26T22:23:20.585Z,9.45
2023-04-26T22:25:47.331Z,9.48
2023-04-26T22:28:14.065Z,9.50
2023-04-26T22:30:40.979Z,9.53
2023-04-26T22:33:07.874Z,9.56
2023-04-26T22:35:35.098Z,9.64
2023-04-26T22:38:02.058Z,9.64
2023-04-26T22:40:29.306Z,9.62
2023-04-26T22:42:56.123Z,9.60
2023-04-26T22:45:23.059Z,9.56
2023-04-26T22:47:49.986Z,9.56
2023-04-26T22:50:17.064Z,9.55
2023-04-26T22:52:43.879Z,9.59
2023-04-26T22:55:10.712Z,9.63
2023-04-26T22:57:37.859Z,9.64
2023-04-26T23:00:06.542Z,9.65
2023-04-26T23:02:33.339Z,9.69
2023-04-26T23:05:00.428Z,9.66
2023-04-26T23:07:32.496Z,9.68
2023-04-26T23:10:11.796Z,9.68
2023-04-26T23:12:39.451Z,9.63
2023-04-26T23:15:19.952Z,9.66
2023-04-26T23:17:54.149Z,9.61
2023-04-26T23:20:21.790Z,9.55
2023-04-26T23:22:49.427Z,9.58
2023-04-26T23:25:18.160Z,9.56
2023-04-26T23:27:47.015Z,9.50
2023-04-26T23:30:14.926Z,9.41
2023-04-26T23:32:42.793Z,9.36
2023-04-26T23:35:12.926Z,9.33
2023-04-26T23:38:01.264Z,9.29
2023-04-26T23:43:14.604Z,9.38
2023-04-26T23:45:48.228Z,9.28
2023-04-26T23:48:21.930Z,9.13
2023-04-26T23:50:51.438Z,9.09
2023-04-26T23:53:27.016Z,9.19
2023-04-26T23:56:18.012Z,9.26
2023-04-26T23:58:45.952Z,9.25
